sensor_id;sensor_type;location;lat;lon;timestamp;P1;durP1;ratioP1;P2;durP2;ratioP2
52798;SDS011;38667;42.872;74.622;2022-09-24T00:02:20;16.15;;;5.53;;
52798;SDS011;38667;42.872;74.622;2022-09-24T00:04:46;11.95;;;5.35;;
52798;SDS011;38667;42.872;74.622;2022-09-24T00:07:12;16.08;;;5.43;;
52798;SDS011;38667;42.872;74.622;2022-09-24T00:09:39;14.95;;;5.28;;
52798;SDS011;38667;42.872;74.622;2022-09-24T00:12:05;13.68;;;5.47;;
52798;SDS011;38667;42.872;74.622;2022-09-24T00:14:33;14.40;;;8.65;;
52798;SDS011;38667;42.872;74.622;2022-09-24T00:16:59;15.30;;;6.57;;
52798;SDS011;38667;42.872;74.622;2022-09-24T00:19:26;14.05;;;6.18;;
52798;SDS011;38667;42.872;74.622;2022-09-24T00:21:52;23.63;;;6.32;;
52798;SDS011;38667;42.872;74.622;2022-09-24T00:24:18;12.57;;;6.70;;
52798;SDS011;38667;42.872;74.622;2022-09-24T00:26:44;23.10;;;6.85;;
52798;SDS011;38667;42.872;74.622;2022-09-24T00:29:11;13.35;;;6.53;;
52798;SDS011;38667;42.872;74.622;2022-09-24T00:31:41;13.75;;;6.25;;
52798;SDS011;38667;42.872;74.622;2022-09-24T00:34:07;11.32;;;5.50;;
52798;SDS011;38667;42.872;74.622;2022-09-24T00:36:34;15.70;;;5.75;;
52798;SDS011;38667;42.872;74.622;2022-09-24T00:39:00;22.80;;;5.95;;
52798;SDS011;38667;42.872;74.622;2022-09-24T00:41:27;16.13;;;5.72;;
52798;SDS011;38667;42.872;74.622;2022-09-24T00:43:55;14.13;;;5.80;;
52798;SDS011;38667;42.872;74.622;2022-09-24T00:46:22;17.38;;;6.00;;
52798;SDS011;38667;42.872;74.622;2022-09-24T00:48:54;19.08;;;6.07;;
52798;SDS011;38667;42.872;74.622;2022-09-24T00:51:25;16.80;;;5.75;;
52798;SDS011;38667;42.872;74.622;2022-09-24T00:53:54;19.73;;;7.35;;
52798;SDS011;38667;42.872;74.622;2022-09-24T00:56:24;15.60;;;6.60;;
52798;SDS011;38667;42.872;74.622;2022-09-24T00:58:53;16.80;;;6.75;;
52798;SDS011;38667;42.872;74.622;2022-09-24T01:01:21;22.67;;;6.72;;
52798;SDS011;38667;42.872;74.622;2022-09-24T01:03:49;18.38;;;6.85;;
52798;SDS011;38667;42.872;74.622;2022-09-24T01:06:19;17.80;;;7.22;;
52798;SDS011;38667;42.872;74.622;2022-09-24T01:08:45;25.75;;;8.00;;
52798;SDS011;38667;42.872;74.622;2022-09-24T01:11:18;19.48;;;7.57;;
52798;SDS011;38667;42.872;74.622;2022-09-24T01:14:09;18.30;;;6.60;;
52798;SDS011;38667;42.872;74.622;2022-09-24T01:16:55;31.73;;;7.80;;
52798;SDS011;38667;42.872;74.622;2022-09-24T01:19:46;26.40;;;6.43;;
52798;SDS011;38667;42.872;74.622;2022-09-24T01:22:40;25.23;;;7.10;;
52798;SDS011;38667;42.872;74.622;2022-09-24T01:25:21;24.40;;;6.80;;
52798;SDS011;38667;42.872;74.622;2022-09-24T01:27:59;25.73;;;7.22;;
52798;SDS011;38667;42.872;74.622;2022-09-24T01:30:33;36.88;;;7.15;;
52798;SDS011;38667;42.872;74.622;2022-09-24T01:33:02;26.67;;;6.90;;
52798;SDS011;38667;42.872;74.622;2022-09-24T01:35:33;30.90;;;6.85;;
52798;SDS011;38667;42.872;74.622;2022-09-24T01:38:02;28.58;;;7.03;;
52798;SDS011;38667;42.872;74.622;2022-09-24T01:40:32;29.95;;;7.43;;
52798;SDS011;38667;42.872;74.622;2022-09-24T01:43:01;20.15;;;7.18;;
52798;SDS011;38667;42.872;74.622;2022-09-24T01:45:29;24.48;;;6.65;;
52798;SDS011;38667;42.872;74.622;2022-09-24T01:47:59;21.55;;;7.03;;
52798;SDS011;38667;42.872;74.622;2022-09-24T01:50:27;14.85;;;7.47;;
52798;SDS011;38667;42.872;74.622;2022-09-24T01:53:04;24.20;;;7.47;;
52798;SDS011;38667;42.872;74.622;2022-09-24T01:55:34;24.35;;;7.22;;
52798;SDS011;38667;42.872;74.622;2022-09-24T01:58:04;27.33;;;7.78;;
52798;SDS011;38667;42.872;74.622;2022-09-24T02:00:35;21.77;;;7.55;;
52798;SDS011;38667;42.872;74.622;2022-09-24T02:03:06;23.30;;;8.07;;
52798;SDS011;38667;42.872;74.622;2022-09-24T02:05:37;27.75;;;9.23;;
52798;SDS011;38667;42.872;74.622;2022-09-24T02:08:09;24.33;;;9.18;;
52798;SDS011;38667;42.872;74.622;2022-09-24T02:10:40;23.60;;;8.82;;
52798;SDS011;38667;42.872;74.622;2022-09-24T02:13:09;25.48;;;9.77;;
52798;SDS011;38667;42.872;74.622;2022-09-24T02:15:39;29.40;;;9.43;;
52798;SDS011;38667;42.872;74.622;2022-09-24T02:18:10;23.67;;;9.38;;
52798;SDS011;38667;42.872;74.622;2022-09-24T02:20:40;25.00;;;9.38;;
52798;SDS011;38667;42.872;74.622;2022-09-24T02:23:08;27.42;;;8.48;;
52798;SDS011;38667;42.872;74.622;2022-09-24T02:25:36;32.35;;;9.77;;
52798;SDS011;38667;42.872;74.622;2022-09-24T02:28:06;23.25;;;8.40;;
52798;SDS011;38667;42.872;74.622;2022-09-24T02:30:36;27.80;;;8.85;;
52798;SDS011;38667;42.872;74.622;2022-09-24T02:33:07;25.65;;;9.55;;
52798;SDS011;38667;42.872;74.622;2022-09-24T02:35:36;39.50;;;9.57;;
52798;SDS011;38667;42.872;74.622;2022-09-24T02:38:03;24.55;;;9.60;;
52798;SDS011;38667;42.872;74.622;2022-09-24T02:40:29;27.70;;;10.18;;
52798;SDS011;38667;42.872;74.622;2022-09-24T02:42:55;24.23;;;10.15;;
52798;SDS011;38667;42.872;74.622;2022-09-24T02:45:22;49.83;;;12.52;;
52798;SDS011;38667;42.872;74.622;2022-09-24T02:47:49;28.15;;;10.85;;
52798;SDS011;38667;42.872;74.622;2022-09-24T02:50:16;25.17;;;11.35;;
52798;SDS011;38667;42.872;74.622;2022-09-24T02:52:42;34.08;;;13.95;;
52798;SDS011;38667;42.872;74.622;2022-09-24T02:55:08;41.92;;;14.40;;
52798;SDS011;38667;42.872;74.622;2022-09-24T02:57:34;34.25;;;12.20;;
52798;SDS011;38667;42.872;74.622;2022-09-24T03:00:01;34.38;;;13.48;;
52798;SDS011;38667;42.872;74.622;2022-09-24T03:02:27;26.15;;;12.23;;
52798;SDS011;38667;42.872;74.622;2022-09-24T03:04:55;39.42;;;11.98;;
52798;SDS011;38667;42.872;74.622;2022-09-24T03:07:21;24.60;;;11.15;;
52798;SDS011;38667;42.872;74.622;2022-09-24T03:09:48;34.60;;;11.32;;
52798;SDS011;38667;42.872;74.622;2022-09-24T03:12:14;23.25;;;11.23;;
52798;SDS011;38667;42.872;74.622;2022-09-24T03:14:40;26.33;;;11.55;;
52798;SDS011;38667;42.872;74.622;2022-09-24T03:17:06;23.35;;;11.25;;
52798;SDS011;38667;42.872;74.622;2022-09-24T03:19:33;18.23;;;9.90;;
52798;SDS011;38667;42.872;74.622;2022-09-24T03:22:00;26.48;;;11.23;;
52798;SDS011;38667;42.872;74.622;2022-09-24T03:24:27;22.38;;;9.98;;
52798;SDS011;38667;42.872;74.622;2022-09-24T03:26:53;22.13;;;9.05;;
52798;SDS011;38667;42.872;74.622;2022-09-24T03:29:19;19.85;;;7.78;;
52798;SDS011;38667;42.872;74.622;2022-09-24T03:31:46;20.65;;;6.60;;
52798;SDS011;38667;42.872;74.622;2022-09-24T03:34:12;17.83;;;6.10;;
52798;SDS011;38667;42.872;74.622;2022-09-24T03:36:38;16.15;;;6.53;;
52798;SDS011;38667;42.872;74.622;2022-09-24T03:39:06;14.57;;;5.68;;
52798;SDS011;38667;42.872;74.622;2022-09-24T03:41:32;17.73;;;6.15;;
52798;SDS011;38667;42.872;74.622;2022-09-24T03:43:59;15.52;;;5.85;;
52798;SDS011;38667;42.872;74.622;2022-09-24T03:46:25;15.35;;;4.82;;
52798;SDS011;38667;42.872;74.622;2022-09-24T03:48:52;13.75;;;3.95;;
52798;SDS011;38667;42.872;74.622;2022-09-24T03:51:18;10.63;;;3.65;;
52798;SDS011;38667;42.872;74.622;2022-09-24T03:53:44;15.85;;;3.83;;
52798;SDS011;38667;42.872;74.622;2022-09-24T03:56:13;11.05;;;4.03;;
52798;SDS011;38667;42.872;74.622;2022-09-24T03:58:40;13.63;;;3.85;;
52798;SDS011;38667;42.872;74.622;2022-09-24T04:01:07;9.27;;;4.00;;
52798;SDS011;38667;42.872;74.622;2022-09-24T04:03:34;6.60;;;3.55;;
52798;SDS011;38667;42.872;74.622;2022-09-24T04:06:01;15.35;;;4.45;;
52798;SDS011;38667;42.872;74.622;2022-09-24T04:08:27;12.63;;;4.40;;
52798;SDS011;38667;42.872;74.622;2022-09-24T04:10:54;7.63;;;3.80;;
52798;SDS011;38667;42.872;74.622;2022-09-24T04:13:22;16.67;;;4.13;;
52798;SDS011;38667;42.872;74.622;2022-09-24T04:15:48;9.65;;;4.95;;
52798;SDS011;38667;42.872;74.622;2022-09-24T04:18:15;9.27;;;4.15;;
52798;SDS011;38667;42.872;74.622;2022-09-24T04:20:41;11.18;;;4.18;;
52798;SDS011;38667;42.872;74.622;2022-09-24T04:23:08;13.60;;;6.30;;
52798;SDS011;38667;42.872;74.622;2022-09-24T04:25:35;11.25;;;5.05;;
52798;SDS011;38667;42.872;74.622;2022-09-24T04:28:02;12.70;;;5.22;;
52798;SDS011;38667;42.872;74.622;2022-09-24T04:30:32;8.40;;;4.75;;
52798;SDS011;38667;42.872;74.622;2022-09-24T04:32:59;8.73;;;4.72;;
52798;SDS011;38667;42.872;74.622;2022-09-24T04:35:26;9.52;;;4.55;;
52798;SDS011;38667;42.872;74.622;2022-09-24T04:37:54;11.82;;;5.25;;
52798;SDS011;38667;42.872;74.622;2022-09-24T04:40:21;12.27;;;5.40;;
52798;SDS011;38667;42.872;74.622;2022-09-24T04:42:47;15.85;;;5.53;;
52798;SDS011;38667;42.872;74.622;2022-09-24T04:45:14;13.13;;;5.03;;
52798;SDS011;38667;42.872;74.622;2022-09-24T04:47:42;12.32;;;4.90;;
52798;SDS011;38667;42.872;74.622;2022-09-24T04:50:09;12.77;;;4.88;;
52798;SDS011;38667;42.872;74.622;2022-09-24T04:52:37;14.52;;;5.22;;
52798;SDS011;38667;42.872;74.622;2022-09-24T04:55:04;17.75;;;5.30;;
52798;SDS011;38667;42.872;74.622;2022-09-24T04:57:30;17.40;;;5.80;;
52798;SDS011;38667;42.872;74.622;2022-09-24T04:59:57;12.43;;;4.93;;
52798;SDS011;38667;42.872;74.622;2022-09-24T05:02:23;17.52;;;6.28;;
52798;SDS011;38667;42.872;74.622;2022-09-24T05:04:51;18.58;;;6.05;;
52798;SDS011;38667;42.872;74.622;2022-09-24T05:07:17;17.20;;;5.63;;
52798;SDS011;38667;42.872;74.622;2022-09-24T05:09:43;14.65;;;6.00;;
52798;SDS011;38667;42.872;74.622;2022-09-24T05:12:10;14.45;;;5.93;;
52798;SDS011;38667;42.872;74.622;2022-09-24T05:14:36;16.58;;;5.85;;
52798;SDS011;38667;42.872;74.622;2022-09-24T05:17:02;11.05;;;5.88;;
52798;SDS011;38667;42.872;74.622;2022-09-24T05:19:28;17.27;;;5.97;;
52798;SDS011;38667;42.872;74.622;2022-09-24T05:21:56;16.88;;;5.45;;
52798;SDS011;38667;42.872;74.622;2022-09-24T05:24:23;21.67;;;5.70;;
52798;SDS011;38667;42.872;74.622;2022-09-24T05:26:49;13.38;;;6.38;;
52798;SDS011;38667;42.872;74.622;2022-09-24T05:29:15;24.58;;;6.30;;
52798;SDS011;38667;42.872;74.622;2022-09-24T05:31:41;20.60;;;6.13;;
52798;SDS011;38667;42.872;74.622;2022-09-24T05:34:08;15.75;;;6.20;;
52798;SDS011;38667;42.872;74.622;2022-09-24T05:36:34;17.77;;;6.43;;
52798;SDS011;38667;42.872;74.622;2022-09-24T05:39:02;15.13;;;5.32;;
52798;SDS011;38667;42.872;74.622;2022-09-24T05:41:28;16.23;;;6.40;;
52798;SDS011;38667;42.872;74.622;2022-09-24T05:43:55;17.17;;;6.72;;
52798;SDS011;38667;42.872;74.622;2022-09-24T05:46:21;26.77;;;8.05;;
52798;SDS011;38667;42.872;74.622;2022-09-24T05:48:47;25.83;;;7.72;;
52798;SDS011;38667;42.872;74.622;2022-09-24T05:51:14;20.45;;;7.82;;
52798;SDS011;38667;42.872;74.622;2022-09-24T05:53:40;30.42;;;8.75;;
52798;SDS011;38667;42.872;74.622;2022-09-24T05:56:08;18.75;;;7.55;;
52798;SDS011;38667;42.872;74.622;2022-09-24T05:58:34;26.05;;;7.68;;
52798;SDS011;38667;42.872;74.622;2022-09-24T06:01:00;35.17;;;7.88;;
52798;SDS011;38667;42.872;74.622;2022-09-24T06:03:27;26.27;;;7.72;;
52798;SDS011;38667;42.872;74.622;2022-09-24T06:05:53;24.25;;;6.38;;
52798;SDS011;38667;42.872;74.622;2022-09-24T06:08:20;23.10;;;5.93;;
52798;SDS011;38667;42.872;74.622;2022-09-24T06:10:47;26.73;;;6.30;;
52798;SDS011;38667;42.872;74.622;2022-09-24T06:13:17;17.58;;;5.95;;
52798;SDS011;38667;42.872;74.622;2022-09-24T06:15:44;10.43;;;4.88;;
52798;SDS011;38667;42.872;74.622;2022-09-24T06:18:10;15.70;;;5.18;;
52798;SDS011;38667;42.872;74.622;2022-09-24T06:20:37;11.30;;;4.70;;
52798;SDS011;38667;42.872;74.622;2022-09-24T06:23:03;12.52;;;5.47;;
52798;SDS011;38667;42.872;74.622;2022-09-24T06:25:29;14.13;;;6.00;;
52798;SDS011;38667;42.872;74.622;2022-09-24T06:27:56;19.10;;;8.00;;
52798;SDS011;38667;42.872;74.622;2022-09-24T06:30:24;20.00;;;8.00;;
52798;SDS011;38667;42.872;74.622;2022-09-24T06:32:51;12.90;;;5.78;;
52798;SDS011;38667;42.872;74.622;2022-09-24T06:35:17;14.30;;;5.88;;
52798;SDS011;38667;42.872;74.622;2022-09-24T06:37:44;19.92;;;7.43;;
52798;SDS011;38667;42.872;74.622;2022-09-24T06:40:10;12.43;;;5.07;;
52798;SDS011;38667;42.872;74.622;2022-09-24T06:42:36;18.10;;;6.00;;
52798;SDS011;38667;42.872;74.622;2022-09-24T06:45:02;20.45;;;5.82;;
52798;SDS011;38667;42.872;74.622;2022-09-24T06:47:31;15.55;;;5.90;;
52798;SDS011;38667;42.872;74.622;2022-09-24T06:49:57;17.77;;;6.45;;
52798;SDS011;38667;42.872;74.622;2022-09-24T06:52:23;15.43;;;7.13;;
52798;SDS011;38667;42.872;74.622;2022-09-24T06:54:50;12.23;;;6.75;;
52798;SDS011;38667;42.872;74.622;2022-09-24T06:57:16;11.20;;;6.68;;
52798;SDS011;38667;42.872;74.622;2022-09-24T06:59:42;14.57;;;6.45;;
52798;SDS011;38667;42.872;74.622;2022-09-24T07:02:08;14.75;;;6.93;;
52798;SDS011;38667;42.872;74.622;2022-09-24T07:04:36;17.85;;;5.35;;
52798;SDS011;38667;42.872;74.622;2022-09-24T07:07:03;15.25;;;5.80;;
52798;SDS011;38667;42.872;74.622;2022-09-24T07:09:30;11.75;;;4.65;;
52798;SDS011;38667;42.872;74.622;2022-09-24T07:11:57;20.25;;;5.20;;
52798;SDS011;38667;42.872;74.622;2022-09-24T07:14:23;19.52;;;5.78;;
52798;SDS011;38667;42.872;74.622;2022-09-24T07:16:49;15.77;;;5.25;;
52798;SDS011;38667;42.872;74.622;2022-09-24T07:19:16;19.35;;;5.57;;
52798;SDS011;38667;42.872;74.622;2022-09-24T07:21:43;15.82;;;5.47;;
52798;SDS011;38667;42.872;74.622;2022-09-24T07:24:10;11.27;;;5.10;;
52798;SDS011;38667;42.872;74.622;2022-09-24T07:26:36;9.75;;;4.10;;
52798;SDS011;38667;42.872;74.622;2022-09-24T07:29:02;10.73;;;4.97;;
52798;SDS011;38667;42.872;74.622;2022-09-24T07:31:29;16.75;;;4.82;;
52798;SDS011;38667;42.872;74.622;2022-09-24T07:33:55;12.85;;;4.80;;
52798;SDS011;38667;42.872;74.622;2022-09-24T07:36:22;10.48;;;4.38;;
52798;SDS011;38667;42.872;74.622;2022-09-24T07:38:49;10.45;;;4.55;;
52798;SDS011;38667;42.872;74.622;2022-09-24T07:41:16;11.07;;;4.72;;
52798;SDS011;38667;42.872;74.622;2022-09-24T07:43:43;21.30;;;7.05;;
52798;SDS011;38667;42.872;74.622;2022-09-24T07:46:09;14.65;;;6.53;;
52798;SDS011;38667;42.872;74.622;2022-09-24T07:48:35;18.60;;;5.80;;
52798;SDS011;38667;42.872;74.622;2022-09-24T07:51:02;18.65;;;7.88;;
52798;SDS011;38667;42.872;74.622;2022-09-24T07:53:28;19.75;;;7.10;;
52798;SDS011;38667;42.872;74.622;2022-09-24T07:55:59;15.52;;;7.22;;
52798;SDS011;38667;42.872;74.622;2022-09-24T07:58:25;23.90;;;9.68;;
52798;SDS011;38667;42.872;74.622;2022-09-24T08:00:51;10.35;;;6.05;;
52798;SDS011;38667;42.872;74.622;2022-09-24T08:03:21;12.93;;;5.68;;
52798;SDS011;38667;42.872;74.622;2022-09-24T08:05:47;13.23;;;4.50;;
52798;SDS011;38667;42.872;74.622;2022-09-24T08:08:13;20.65;;;4.95;;
52798;SDS011;38667;42.872;74.622;2022-09-24T08:10:40;13.85;;;5.05;;
52798;SDS011;38667;42.872;74.622;2022-09-24T08:13:08;12.00;;;5.13;;
52798;SDS011;38667;42.872;74.622;2022-09-24T08:15:34;11.45;;;4.50;;
52798;SDS011;38667;42.872;74.622;2022-09-24T08:18:00;18.65;;;5.45;;
52798;SDS011;38667;42.872;74.622;2022-09-24T08:20:27;9.23;;;3.83;;
52798;SDS011;38667;42.872;74.622;2022-09-24T08:22:54;10.93;;;3.70;;
52798;SDS011;38667;42.872;74.622;2022-09-24T08:25:25;9.27;;;3.97;;
52798;SDS011;38667;42.872;74.622;2022-09-24T08:27:51;9.32;;;3.97;;
52798;SDS011;38667;42.872;74.622;2022-09-24T08:30:19;7.45;;;4.18;;
52798;SDS011;38667;42.872;74.622;2022-09-24T08:32:45;10.68;;;4.00;;
52798;SDS011;38667;42.872;74.622;2022-09-24T08:35:11;10.93;;;3.80;;
52798;SDS011;38667;42.872;74.622;2022-09-24T08:37:39;9.85;;;3.83;;
52798;SDS011;38667;42.872;74.622;2022-09-24T08:40:06;10.13;;;3.97;;
52798;SDS011;38667;42.872;74.622;2022-09-24T08:42:40;10.63;;;3.83;;
52798;SDS011;38667;42.872;74.622;2022-09-24T08:45:10;10.35;;;3.92;;
52798;SDS011;38667;42.872;74.622;2022-09-24T08:47:39;7.47;;;3.50;;
52798;SDS011;38667;42.872;74.622;2022-09-24T08:50:11;6.75;;;3.53;;
52798;SDS011;38667;42.872;74.622;2022-09-24T08:52:43;7.47;;;3.50;;
52798;SDS011;38667;42.872;74.622;2022-09-24T08:55:19;7.75;;;3.47;;
52798;SDS011;38667;42.872;74.622;2022-09-24T08:57:50;6.93;;;3.15;;
52798;SDS011;38667;42.872;74.622;2022-09-24T09:00:23;10.05;;;3.20;;
52798;SDS011;38667;42.872;74.622;2022-09-24T09:02:52;16.45;;;4.05;;
52798;SDS011;38667;42.872;74.622;2022-09-24T09:05:29;6.05;;;3.08;;
52798;SDS011;38667;42.872;74.622;2022-09-24T09:08:09;14.20;;;3.92;;
52798;SDS011;38667;42.872;74.622;2022-09-24T09:10:40;8.13;;;3.38;;
52798;SDS011;38667;42.872;74.622;2022-09-24T09:13:09;10.60;;;3.70;;
52798;SDS011;38667;42.872;74.622;2022-09-24T09:15:42;4.97;;;3.63;;
52798;SDS011;38667;42.872;74.622;2022-09-24T09:18:13;5.60;;;3.75;;
52798;SDS011;38667;42.872;74.622;2022-09-24T09:20:45;9.80;;;3.13;;
52798;SDS011;38667;42.872;74.622;2022-09-24T09:23:14;9.20;;;3.08;;
52798;SDS011;38667;42.872;74.622;2022-09-24T09:25:45;12.77;;;3.72;;
52798;SDS011;38667;42.872;74.622;2022-09-24T09:28:13;11.82;;;4.05;;
52798;SDS011;38667;42.872;74.622;2022-09-24T09:30:43;9.95;;;3.20;;
52798;SDS011;38667;42.872;74.622;2022-09-24T09:33:25;10.07;;;3.17;;
52798;SDS011;38667;42.872;74.622;2022-09-24T09:36:04;6.82;;;3.30;;
52798;SDS011;38667;42.872;74.622;2022-09-24T09:38:44;8.65;;;3.95;;
52798;SDS011;38667;42.872;74.622;2022-09-24T09:41:22;12.38;;;4.00;;
52798;SDS011;38667;42.872;74.622;2022-09-24T09:43:57;9.85;;;4.10;;
52798;SDS011;38667;42.872;74.622;2022-09-24T09:46:27;7.00;;;3.55;;
52798;SDS011;38667;42.872;74.622;2022-09-24T09:49:00;11.27;;;3.17;;
52798;SDS011;38667;42.872;74.622;2022-09-24T09:51:29;8.77;;;3.55;;
52798;SDS011;38667;42.872;74.622;2022-09-24T09:54:00;9.70;;;3.30;;
52798;SDS011;38667;42.872;74.622;2022-09-24T09:56:28;12.05;;;3.33;;
52798;SDS011;38667;42.872;74.622;2022-09-24T09:59:04;9.20;;;3.75;;
52798;SDS011;38667;42.872;74.622;2022-09-24T10:01:33;5.32;;;3.17;;
52798;SDS011;38667;42.872;74.622;2022-09-24T10:04:02;8.23;;;3.38;;
52798;SDS011;38667;42.872;74.622;2022-09-24T10:06:29;14.43;;;4.35;;
52798;SDS011;38667;42.872;74.622;2022-09-24T10:09:05;8.02;;;3.50;;
52798;SDS011;38667;42.872;74.622;2022-09-24T10:11:32;6.90;;;3.53;;
52798;SDS011;38667;42.872;74.622;2022-09-24T10:14:02;8.35;;;3.30;;
52798;SDS011;38667;42.872;74.622;2022-09-24T10:16:28;12.63;;;3.40;;
52798;SDS011;38667;42.872;74.622;2022-09-24T10:18:55;10.13;;;3.30;;
52798;SDS011;38667;42.872;74.622;2022-09-24T10:21:28;8.07;;;3.38;;
52798;SDS011;38667;42.872;74.622;2022-09-24T10:23:58;6.13;;;3.20;;
52798;SDS011;38667;42.872;74.622;2022-09-24T10:26:32;6.28;;;3.28;;
52798;SDS011;38667;42.872;74.622;2022-09-24T10:28:59;10.02;;;3.20;;
52798;SDS011;38667;42.872;74.622;2022-09-24T10:31:28;8.98;;;3.97;;
52798;SDS011;38667;42.872;74.622;2022-09-24T10:33:56;11.60;;;5.38;;
52798;SDS011;38667;42.872;74.622;2022-09-24T10:36:26;11.38;;;4.93;;
52798;SDS011;38667;42.872;74.622;2022-09-24T10:39:01;15.93;;;4.95;;
52798;SDS011;38667;42.872;74.622;2022-09-24T10:41:29;8.82;;;4.90;;
52798;SDS011;38667;42.872;74.622;2022-09-24T10:43:56;14.57;;;4.93;;
52798;SDS011;38667;42.872;74.622;2022-09-24T10:46:37;8.45;;;5.00;;
52798;SDS011;38667;42.872;74.622;2022-09-24T10:49:27;7.85;;;4.30;;
52798;SDS011;38667;42.872;74.622;2022-09-24T10:52:07;10.13;;;4.38;;
52798;SDS011;38667;42.872;74.622;2022-09-24T10:54:48;5.55;;;4.05;;
52798;SDS011;38667;42.872;74.622;2022-09-24T10:57:27;12.05;;;4.25;;
52798;SDS011;38667;42.872;74.622;2022-09-24T11:00:00;8.85;;;4.07;;
52798;SDS011;38667;42.872;74.622;2022-09-24T11:05:28;9.20;;;3.83;;
52798;SDS011;38667;42.872;74.622;2022-09-24T11:08:05;9.90;;;3.65;;
52798;SDS011;38667;42.872;74.622;2022-09-24T11:10:55;7.85;;;3.78;;
52798;SDS011;38667;42.872;74.622;2022-09-24T11:13:31;13.73;;;3.65;;
52798;SDS011;38667;42.872;74.622;2022-09-24T11:16:15;10.50;;;3.88;;
52798;SDS011;38667;42.872;74.622;2022-09-24T11:19:04;10.40;;;3.58;;
52798;SDS011;38667;42.872;74.622;2022-09-24T11:21:47;11.63;;;3.33;;
52798;SDS011;38667;42.872;74.622;2022-09-24T11:27:40;6.68;;;3.40;;
52798;SDS011;38667;42.872;74.622;2022-09-24T11:30:16;12.20;;;3.60;;
52798;SDS011;38667;42.872;74.622;2022-09-24T11:32:49;11.70;;;3.85;;
52798;SDS011;38667;42.872;74.622;2022-09-24T11:35:29;7.03;;;3.35;;
52798;SDS011;38667;42.872;74.622;2022-09-24T11:38:07;7.82;;;3.63;;
52798;SDS011;38667;42.872;74.622;2022-09-24T11:43:51;7.80;;;3.30;;
52798;SDS011;38667;42.872;74.622;2022-09-24T11:46:37;6.72;;;3.67;;
52798;SDS011;38667;42.872;74.622;2022-09-24T11:49:16;9.93;;;3.60;;
52798;SDS011;38667;42.872;74.622;2022-09-24T11:51:54;10.85;;;3.70;;
52798;SDS011;38667;42.872;74.622;2022-09-24T11:54:25;9.52;;;3.72;;
52798;SDS011;38667;42.872;74.622;2022-09-24T11:57:01;12.55;;;3.90;;
52798;SDS011;38667;42.872;74.622;2022-09-24T11:59:35;8.23;;;3.85;;
52798;SDS011;38667;42.872;74.622;2022-09-24T12:02:09;5.93;;;3.28;;
52798;SDS011;38667;42.872;74.622;2022-09-24T12:04:49;5.97;;;3.28;;
52798;SDS011;38667;42.872;74.622;2022-09-24T12:07:22;7.60;;;3.55;;
52798;SDS011;38667;42.872;74.622;2022-09-24T12:09:54;7.22;;;3.88;;
52798;SDS011;38667;42.872;74.622;2022-09-24T12:12:27;6.47;;;3.80;;
52798;SDS011;38667;42.872;74.622;2022-09-24T12:14:57;9.30;;;3.38;;
52798;SDS011;38667;42.872;74.622;2022-09-24T12:17:27;10.15;;;3.67;;
52798;SDS011;38667;42.872;74.622;2022-09-24T12:19:59;14.38;;;4.05;;
52798;SDS011;38667;42.872;74.622;2022-09-24T12:22:29;8.38;;;3.50;;
52798;SDS011;38667;42.872;74.622;2022-09-24T12:24:58;10.02;;;3.63;;
52798;SDS011;38667;42.872;74.622;2022-09-24T12:27:27;12.25;;;3.92;;
52798;SDS011;38667;42.872;74.622;2022-09-24T12:30:19;7.32;;;3.60;;
52798;SDS011;38667;42.872;74.622;2022-09-24T12:32:55;12.73;;;4.13;;
52798;SDS011;38667;42.872;74.622;2022-09-24T12:35:31;7.93;;;4.50;;
52798;SDS011;38667;42.872;74.622;2022-09-24T12:38:07;11.82;;;4.28;;
52798;SDS011;38667;42.872;74.622;2022-09-24T12:40:42;13.05;;;4.78;;
52798;SDS011;38667;42.872;74.622;2022-09-24T12:43:38;11.70;;;4.32;;
52798;SDS011;38667;42.872;74.622;2022-09-24T12:46:12;10.50;;;5.18;;
52798;SDS011;38667;42.872;74.622;2022-09-24T12:48:42;10.18;;;4.57;;
52798;SDS011;38667;42.872;74.622;2022-09-24T12:51:10;11.50;;;4.85;;
52798;SDS011;38667;42.872;74.622;2022-09-24T12:53:37;10.98;;;5.00;;
52798;SDS011;38667;42.872;74.622;2022-09-24T12:56:06;18.33;;;6.03;;
52798;SDS011;38667;42.872;74.622;2022-09-24T12:58:39;20.23;;;6.82;;
52798;SDS011;38667;42.872;74.622;2022-09-24T13:01:10;22.30;;;7.28;;
52798;SDS011;38667;42.872;74.622;2022-09-24T13:03:38;17.02;;;7.70;;
52798;SDS011;38667;42.872;74.622;2022-09-24T13:06:18;20.25;;;7.65;;
52798;SDS011;38667;42.872;74.622;2022-09-24T13:08:47;19.60;;;7.97;;
52798;SDS011;38667;42.872;74.622;2022-09-24T13:11:27;19.38;;;9.65;;
52798;SDS011;38667;42.872;74.622;2022-09-24T13:14:01;27.05;;;10.73;;
52798;SDS011;38667;42.872;74.622;2022-09-24T13:16:35;29.38;;;10.45;;
52798;SDS011;38667;42.872;74.622;2022-09-24T13:19:03;28.92;;;10.63;;
52798;SDS011;38667;42.872;74.622;2022-09-24T13:21:51;26.23;;;10.48;;
52798;SDS011;38667;42.872;74.622;2022-09-24T13:24:22;23.88;;;10.85;;
52798;SDS011;38667;42.872;74.622;2022-09-24T13:26:52;22.08;;;10.45;;
52798;SDS011;38667;42.872;74.622;2022-09-24T13:29:24;22.50;;;10.05;;
52798;SDS011;38667;42.872;74.622;2022-09-24T13:31:52;30.70;;;10.65;;
52798;SDS011;38667;42.872;74.622;2022-09-24T13:34:24;33.65;;;12.45;;
52798;SDS011;38667;42.872;74.622;2022-09-24T13:36:54;30.02;;;12.35;;
52798;SDS011;38667;42.872;74.622;2022-09-24T13:39:23;26.70;;;12.05;;
52798;SDS011;38667;42.872;74.622;2022-09-24T13:41:56;26.77;;;11.07;;
52798;SDS011;38667;42.872;74.622;2022-09-24T13:44:32;27.35;;;10.57;;
52798;SDS011;38667;42.872;74.622;2022-09-24T13:47:02;28.20;;;9.50;;
52798;SDS011;38667;42.872;74.622;2022-09-24T13:49:36;28.55;;;8.65;;
52798;SDS011;38667;42.872;74.622;2022-09-24T13:52:07;18.27;;;8.35;;
52798;SDS011;38667;42.872;74.622;2022-09-24T13:54:41;29.92;;;8.82;;
52798;SDS011;38667;42.872;74.622;2022-09-24T13:57:19;19.85;;;7.40;;
52798;SDS011;38667;42.872;74.622;2022-09-24T13:59:49;24.80;;;7.82;;
52798;SDS011;38667;42.872;74.622;2022-09-24T14:02:30;21.13;;;10.23;;
52798;SDS011;38667;42.872;74.622;2022-09-24T14:05:00;20.95;;;8.50;;
52798;SDS011;38667;42.872;74.622;2022-09-24T14:07:27;22.02;;;7.63;;
52798;SDS011;38667;42.872;74.622;2022-09-24T14:10:00;23.02;;;7.80;;
52798;SDS011;38667;42.872;74.622;2022-09-24T14:12:29;17.80;;;6.95;;
52798;SDS011;38667;42.872;74.622;2022-09-24T14:14:57;21.40;;;7.47;;
52798;SDS011;38667;42.872;74.622;2022-09-24T14:17:23;14.52;;;6.88;;
52798;SDS011;38667;42.872;74.622;2022-09-24T14:19:53;20.55;;;7.07;;
52798;SDS011;38667;42.872;74.622;2022-09-24T14:22:20;17.13;;;6.72;;
52798;SDS011;38667;42.872;74.622;2022-09-24T14:24:51;15.93;;;5.97;;
52798;SDS011;38667;42.872;74.622;2022-09-24T14:27:19;12.77;;;6.25;;
52798;SDS011;38667;42.872;74.622;2022-09-24T14:29:49;23.50;;;6.88;;
52798;SDS011;38667;42.872;74.622;2022-09-24T14:32:22;16.33;;;6.43;;
52798;SDS011;38667;42.872;74.622;2022-09-24T14:34:51;17.08;;;6.10;;
52798;SDS011;38667;42.872;74.622;2022-09-24T14:37:20;17.58;;;5.75;;
52798;SDS011;38667;42.872;74.622;2022-09-24T14:39:50;13.95;;;5.60;;
52798;SDS011;38667;42.872;74.622;2022-09-24T14:42:24;17.88;;;6.25;;
52798;SDS011;38667;42.872;74.622;2022-09-24T14:44:52;19.85;;;5.60;;
52798;SDS011;38667;42.872;74.622;2022-09-24T14:47:30;19.23;;;5.57;;
52798;SDS011;38667;42.872;74.622;2022-09-24T14:49:58;16.55;;;5.72;;